• Join FlightAware (Why Join?)
  • Login
  • US Flag 
09:22AM EDT


 

Airport Tracker/Info


-or-


 

Live Flight TrackerFlight Track Log ✈ N79JS ✈ 09-May-2013 ✈ KICT - KMKC

Flight Track Log - Related Links

Times and Time Zones

All times are in EDT time to prevent confusion due to time zone crossing. See the N79JS flight status page for this flight to view local times or setup timezone preferences in your user account.

Time Position Orientation Groundspeed Altitude Reporting Facility
EDT Latitude Longitude Course Direction KTS MPH feet Rate Location/Type
05:59PM 37.6586 -97.4197 58° Northeast 150 173 2,000  Level Kansas City Center
06:00PM 37.6933 -97.4092 14° North 173 199 4,400 2,160 Climbing Kansas City Center
06:01PM 37.7261 -97.3942 20° North 197 227 5,000 1,140 Climbing Kansas City Center
06:02PM 37.7897 -97.3428 33° Northeast 259 298 6,400 2,400 Climbing Kansas City Center
06:03PM 37.8292 -97.2608 59° Northeast 274 315 10,000 3,600 Climbing Kansas City Center
06:04PM 37.8775 -97.1453 62° Northeast 307 353 13,900 2,880 Climbing Kansas City Center
06:05PM 37.9004 -96.9160 58° Northeast  Level FlightAware Approximate
06:05PM 37.9225 -97.0381 62° Northeast 341 392 16,000  Level Kansas City Center
06:06PM 37.9722 -96.9200 62° Northeast 375 432 17,000 480 Climbing Kansas City Center
06:07PM 38.0217 -96.8008 62° Northeast 381 438 17,000  Level Kansas City Center
06:08PM 38.0703 -96.6817 63° Northeast 380 437 17,000  Level Kansas City Center
06:09PM 38.1192 -96.5633 62° Northeast 379 436 17,000  Level Kansas City Center
06:10PM 38.1772 -96.4208 63° Northeast 380 437 17,000  Level Kansas City Center
06:11PM 38.2272 -96.3003 62° Northeast 374 430 17,000  Level Kansas City Center
06:13PM 38.3436 -96.0681 57° Northeast 374 430 17,000  Level Kansas City Center
06:14PM 38.4100 -95.9756 47° Northeast 371 427 17,000  Level Kansas City Center
06:15PM 38.4872 -95.8644 48° Northeast 376 433 17,000  Level Kansas City Center
06:16PM 38.5375 -95.7556 59° Northeast 369 425 17,000 -540 Level Kansas City Center
06:17PM 38.5836 -95.6508 61° Northeast 356 410 15,900 -1,500 Descending Kansas City Center
06:18PM 38.6342 -95.5353 61° Northeast 335 386 14,000 -1,740 Descending Kansas City Center
06:19PM 38.6775 -95.4397 60° Northeast 327 376 12,400 -1,020 Descending Kansas City Center
06:20PM 38.7272 -95.3208 62° Northeast 338 389 12,000 -240 Descending Kansas City Center
06:21PM 38.7703 -95.2169 62° Northeast 344 396 12,000  Level Kansas City Center
06:22PM 38.8217 -95.0967 61° Northeast 346 398 12,000 -720 Level Kansas City Center
06:23PM 38.8619 -94.9986 62° Northeast 330 380 10,500 -1,620 Descending Kansas City Center
06:24PM 38.9067 -94.8903 62° Northeast 310 357 8,700 -1,620 Descending Kansas City Center
06:25PM 38.9422 -94.8047 62° Northeast 290 334 7,200 -1,620 Descending Kansas City Center
06:27PM 38.9931 -94.7122 55° Northeast 282 325 5,400 -1,860 Descending Kansas City Center
06:28PM 39.0389 -94.6519 46° Northeast 250 288 3,400 -1,860 Descending Kansas City Center
06:29PM 39.0800 -94.6056 41° Northeast 169 194 1,600 -1,200 Descending Kansas City Center
06:30PM 39.1136 -94.5956 13° North 125 144 1,000 -600 Descending Kansas City Center
06:32PM 39.1167 -94.5833 46° Northeast  Level FlightAware Approximate